Flight Track Log - Related Links

Times and Time Zones

All times are in EDT time to prevent confusion due to time zone crossing. See the N755HF flight status page for this flight to view local times or setup timezone preferences in your user account.

Time Position Orientation Groundspeed Altitude Reporting Facility
EDT Latitude Longitude Course Direction KTS MPH feet Rate Location/Type
Tue 03:52:01 PM 43.2964 -72.6256 239° Southwest 269 310 4,600  Level Boston Center
Tue 03:53:01 PM 43.2714 -72.6825 238° Southwest 233 268 6,100 1,550 Climbing Boston Center
Tue 03:54:01 PM 43.2483 -72.7336 237° Southwest 185 213 7,700 1,650 Climbing Boston Center
Tue 03:55:01 PM 43.2231 -72.7878 237° Southwest 172 198 9,400 1,650 Climbing Boston Center
Tue 03:56:01 PM 43.1978 -72.8417 238° Southwest 167 192 11,000 1,650 Climbing Boston Center
Tue 03:57:01 PM 43.1728 -72.8956 228° Southwest 167 192 12,700 1,700 Climbing Boston Center
Tue 03:58:01 PM 43.1433 -72.9408 223° Southwest 167 192 14,400 1,450 Climbing Boston Center
Tue 03:59:01 PM 43.1078 -72.9861 220° Southwest 162 186 15,600 750 Climbing Boston Center
Tue 04:00:01 PM 43.0658 -73.0342 220° Southwest 184 212 15,900 200 Climbing Boston Center
Tue 04:01:01 PM 43.0175 -73.0903 221° Southwest 212 244 16,000 50 Climbing Boston Center
Tue 04:02:01 PM 42.9672 -73.1494 219° Southwest 236 272 16,000  Level Boston Center
Tue 04:03:01 PM 42.9147 -73.2083 222° Southwest 242 278 16,000  Level Boston Center
Tue 04:04:01 PM 42.8642 -73.2700 219° Southwest 242 278 16,000  Level Boston Center
Tue 04:05:01 PM 42.8117 -73.3286 222° Southwest 242 278 16,000  Level Boston Center
Tue 04:06:01 PM 42.7611 -73.3903 220° Southwest 242 278 16,000  Level Boston Center
Tue 04:07:01 PM 42.7147 -73.4433 221° Southwest 242 278 16,000  Level Boston Center
Tue 04:08:01 PM 42.6622 -73.5044 219° Southwest 242 278 16,000  Level Boston Center
Tue 04:09:01 PM 42.6094 -73.5628 222° Southwest 242 278 16,000  Level Boston Center
Tue 04:10:01 PM 42.5589 -73.6239 220° Southwest 242 278 16,000 -250 Level Boston Center
Tue 04:11:01 PM 42.5061 -73.6850 220° Southwest 242 278 15,500 -500 Descending Boston Center
Tue 04:12:01 PM 42.4511 -73.7486 220° Southwest 242 278 15,000 -250 Descending Boston Center
Tue 04:13:01 PM 42.4006 -73.8064 220° Southwest 247 284 15,000  Level Boston Center
Tue 04:14:01 PM 42.3478 -73.8672 220° Southwest 247 284 15,000  Level Boston Center
Tue 04:15:01 PM 42.2928 -73.9306 220° Southwest 242 278 15,000  Level Boston Center
Tue 04:16:01 PM 42.2461 -73.9828 220° Southwest 242 278 15,000  Level Boston Center
Tue 04:17:01 PM 42.1889 -74.0486 220° Southwest 242 278 15,000  Level Boston Center
Tue 04:18:01 PM 42.1422 -74.1006 220° Southwest 242 278 15,000  Level Boston Center
Tue 04:19:01 PM 42.0892 -74.1606 219° Southwest 242 278 15,000  Level Boston Center
Tue 04:20:01 PM 42.0300 -74.2261 221° Southwest 242 278 15,000  Level Boston Center
Tue 04:21:01 PM 41.9833 -74.2806 219° Southwest 242 278 15,000 -200 Level Boston Center
Tue 04:22:01 PM 41.9258 -74.3431 221° Southwest 242 278 14,600 -750 Descending Boston Center
Tue 04:23:01 PM 41.8792 -74.3975 219° Southwest 247 284 13,500 -1,250 Descending Boston Center
Tue 04:24:01 PM 41.8175 -74.4653 220° Southwest 252 290 12,100 -1,300 Descending Boston Center
Tue 04:25:01 PM 41.7686 -74.5194 192° South 259 298 10,900 -1,400 Descending Boston Center
Tue 04:26:01 PM 41.6889 -74.5417 188° South 254 292 9,300 -1,450 Descending Boston Center
Tue 04:27:01 PM 41.6242 -74.5536 187° South 268 308 8,000 -1,300 Descending Boston Center
Tue 04:28:01 PM 41.5425 -74.5675 189° South 268 308 6,700 -548 Descending Boston Center
Tue 04:30:29 PM 41.3833 -74.6000 201° Southwest 242 278 6,100 -178 Descending New York TRACON
Tue 04:31:23 PM 41.3167 -74.6333 151° Southeast 241 277 6,100 -500 Level New York TRACON
Tue 04:32:29 PM 41.2500 -74.5833 153° Southeast 260 299 5,100 -900 Descending New York TRACON
Tue 04:33:23 PM 41.2000 -74.5500 143° Southeast 255 293 4,300 -1,000 Descending New York TRACON
Tue 04:34:29 PM 41.1333 -74.4833 153° Southeast 250 288 3,100 -600 Descending New York TRACON
Tue 04:35:23 PM 41.0833 -74.4500 153° Southeast 212 244 3,100  Level New York TRACON
Tue 04:36:23 PM 41.0333 -74.4167 143° Southeast 205 236 3,100 -150 Level New York TRACON
Tue 04:37:23 PM 40.9833 -74.3667 153° Southeast 212 244 2,800 -650 Descending New York TRACON
Tue 04:38:23 PM 40.9333 -74.3333 166° South 220 253 1,800 -429 Descending New York TRACON
Tue 04:39:29 PM 40.8833 -74.3167 159° South 158 182 1,900 -286 Climbing New York TRACON
Tue 04:40:29 PM 40.8500 -74.3000 159° South 130 150 1,200 -700 Descending New York TRACON

Login

Don't have an account? Register now (free) for customized features, flight alerts, and more!